createdAt,value
2023-03-05T00:01:18.070Z,22.97
2023-03-05T00:03:46.158Z,18.90
2023-03-05T00:06:17.083Z,19.87
2023-03-05T00:08:44.921Z,20.17
2023-03-05T00:11:13.583Z,19.53
2023-03-05T00:13:41.598Z,19.00
2023-03-05T00:16:11.336Z,21.53
2023-03-05T00:18:39.356Z,17.67
2023-03-05T00:21:20.786Z,22.63
2023-03-05T00:23:50.677Z,18.90
2023-03-05T00:26:18.597Z,18.43
2023-03-05T00:28:49.901Z,19.47
2023-03-05T00:31:18.134Z,19.47
2023-03-05T00:33:46.046Z,20.27
2023-03-05T00:36:13.797Z,14.87
2023-03-05T00:38:42.894Z,31.40
2023-03-05T00:41:10.665Z,21.93
2023-03-05T00:43:38.454Z,20.07
2023-03-05T00:46:06.408Z,21.47
2023-03-05T00:48:34.178Z,19.10
2023-03-05T00:51:01.956Z,22.07
2023-03-05T00:53:29.765Z,22.17
2023-03-05T00:55:59.219Z,17.87
2023-03-05T00:58:27.221Z,20.80
2023-03-05T01:00:58.919Z,19.60
2023-03-05T01:03:26.820Z,16.63
2023-03-05T01:05:54.544Z,19.20
2023-03-05T01:08:22.310Z,16.90
2023-03-05T01:10:50.278Z,18.27
2023-03-05T01:13:19.566Z,16.50
2023-03-05T01:15:48.988Z,18.63
2023-03-05T01:18:17.364Z,19.70
2023-03-05T01:20:46.144Z,19.73
2023-03-05T01:23:14.093Z,16.03
2023-03-05T01:25:42.024Z,19.33
2023-03-05T01:28:10.042Z,14.03
2023-03-05T01:30:39.371Z,25.53
2023-03-05T01:33:07.180Z,20.33
2023-03-05T01:35:35.048Z,22.07
2023-03-05T01:38:02.800Z,19.53
2023-03-05T01:40:31.614Z,22.13
2023-03-05T01:43:01.341Z,18.83
2023-03-05T01:45:32.346Z,20.23
2023-03-05T01:48:01.592Z,21.73
2023-03-05T01:50:29.567Z,15.60
2023-03-05T01:53:00.400Z,15.73
2023-03-05T01:55:30.856Z,19.20
2023-03-05T01:58:01.829Z,19.40
2023-03-05T02:00:31.936Z,22.00
2023-03-05T02:03:03.247Z,18.67
2023-03-05T02:05:33.136Z,27.40
2023-03-05T02:08:02.447Z,21.30
2023-03-05T02:10:32.547Z,24.63
2023-03-05T02:13:02.605Z,24.07
2023-03-05T02:15:30.449Z,20.40
2023-03-05T02:17:58.321Z,17.97
2023-03-05T02:20:29.824Z,18.77
2023-03-05T02:22:59.242Z,20.70
2023-03-05T02:25:29.556Z,18.37
2023-03-05T02:28:02.454Z,21.87
2023-03-05T02:30:31.371Z,19.23
2023-03-05T02:32:59.829Z,24.90
2023-03-05T02:35:27.773Z,19.57
2023-03-05T02:37:55.800Z,22.17
2023-03-05T02:40:25.186Z,18.33
2023-03-05T02:42:53.174Z,23.30
2023-03-05T02:45:21.115Z,19.73
2023-03-05T02:47:49.026Z,24.17
2023-03-05T02:50:17.180Z,19.43
2023-03-05T02:52:45.214Z,18.00
2023-03-05T02:55:13.012Z,25.00
2023-03-05T02:57:42.130Z,22.13
2023-03-05T03:00:11.364Z,22.93
2023-03-05T03:02:39.211Z,25.43
2023-03-05T03:05:08.037Z,24.23
2023-03-05T03:07:36.598Z,25.20
2023-03-05T03:10:04.740Z,23.17
2023-03-05T03:12:32.446Z,23.50
2023-03-05T03:15:02.106Z,22.23
2023-03-05T03:17:29.906Z,24.40
2023-03-05T03:19:57.744Z,24.37
2023-03-05T03:22:25.551Z,26.37
2023-03-05T03:24:53.283Z,26.87
2023-03-05T03:27:21.094Z,23.80
2023-03-05T03:29:48.874Z,23.67
2023-03-05T03:32:18.133Z,31.23
2023-03-05T03:34:45.943Z,21.10
2023-03-05T03:37:13.762Z,29.57
2023-03-05T03:39:41.534Z,25.63
2023-03-05T03:42:09.458Z,28.20
2023-03-05T03:44:37.237Z,28.03
2023-03-05T03:47:05.233Z,23.70
2023-03-05T03:49:34.396Z,29.23
2023-03-05T03:52:02.206Z,27.97
2023-03-05T03:54:29.986Z,29.13
2023-03-05T03:56:57.782Z,25.57
2023-03-05T03:59:25.736Z,23.37
2023-03-05T04:01:53.878Z,28.20
2023-03-05T04:04:21.845Z,33.70
2023-03-05T04:06:51.008Z,26.80
2023-03-05T04:09:18.838Z,22.97
2023-03-05T04:11:46.603Z,26.80
2023-03-05T04:14:14.419Z,26.47
2023-03-05T04:16:42.178Z,22.00
2023-03-05T04:19:09.974Z,18.37
2023-03-05T04:21:37.796Z,22.07
2023-03-05T04:24:08.360Z,20.77
2023-03-05T04:26:36.237Z,18.67
2023-03-05T04:29:04.181Z,15.27
2023-03-05T04:31:32.043Z,18.50
2023-03-05T04:34:00.752Z,18.27
2023-03-05T04:36:28.626Z,18.53
2023-03-05T04:38:56.458Z,18.53
2023-03-05T04:41:25.649Z,18.63
2023-03-05T04:43:53.427Z,16.90
2023-03-05T04:46:21.311Z,15.83
2023-03-05T04:48:49.161Z,12.97
2023-03-05T04:51:16.965Z,18.23
2023-03-05T04:53:44.740Z,20.73
2023-03-05T04:56:12.594Z,18.40
2023-03-05T04:58:41.848Z,16.57
2023-03-05T05:01:09.862Z,14.97
2023-03-05T05:03:37.636Z,13.27
2023-03-05T05:06:05.963Z,13.63
2023-03-05T05:08:33.921Z,14.57
2023-03-05T05:11:03.471Z,14.73
2023-03-05T05:13:31.787Z,13.20
2023-03-05T05:16:01.096Z,18.30
2023-03-05T05:18:28.882Z,10.93
2023-03-05T05:20:56.765Z,15.20
2023-03-05T05:23:24.699Z,16.33
2023-03-05T05:25:59.598Z,16.13
2023-03-05T05:28:27.930Z,15.23
2023-03-05T05:30:55.903Z,14.77
2023-03-05T05:33:25.293Z,13.03
2023-03-05T05:35:53.256Z,14.53
2023-03-05T05:38:21.029Z,17.70
2023-03-05T05:40:48.842Z,17.13
2023-03-05T05:43:16.665Z,14.70
2023-03-05T05:45:45.269Z,15.03
2023-03-05T05:48:13.130Z,16.83
2023-03-05T05:50:42.308Z,12.30
2023-03-05T05:53:10.119Z,12.57
2023-03-05T05:55:41.105Z,16.70
2023-03-05T05:58:08.873Z,16.20
2023-03-05T06:00:36.694Z,13.80
2023-03-05T06:03:04.525Z,14.53
2023-03-05T06:05:32.375Z,14.07
2023-03-05T06:08:01.521Z,20.37
2023-03-05T06:10:29.365Z,16.53
2023-03-05T06:12:57.247Z,17.37
2023-03-05T06:15:25.009Z,20.03
2023-03-05T06:17:54.550Z,18.20
2023-03-05T06:20:23.179Z,14.60
2023-03-05T06:22:50.955Z,19.83
2023-03-05T06:25:20.289Z,17.27
2023-03-05T06:27:48.104Z,19.70
2023-03-05T06:30:16.101Z,19.17
2023-03-05T06:32:43.971Z,17.80
2023-03-05T06:35:11.945Z,19.47
2023-03-05T06:37:39.712Z,19.53
2023-03-05T06:40:09.813Z,17.57
2023-03-05T06:42:38.954Z,19.97
2023-03-05T06:45:08.005Z,16.73
2023-03-05T06:47:35.787Z,17.40
2023-03-05T06:50:03.605Z,16.07
2023-03-05T06:52:31.390Z,21.87
2023-03-05T06:54:59.193Z,21.33
2023-03-05T06:57:27.100Z,17.57
2023-03-05T06:59:56.335Z,16.63
2023-03-05T07:02:24.217Z,17.37
2023-03-05T07:04:52.054Z,14.60
2023-03-05T07:07:19.833Z,15.73
2023-03-05T07:09:50.342Z,14.77
2023-03-05T07:12:18.158Z,12.23
2023-03-05T07:14:45.978Z,15.23
2023-03-05T07:17:15.881Z,14.90
2023-03-05T07:19:44.153Z,15.80
2023-03-05T07:22:12.113Z,12.10
2023-03-05T07:24:42.460Z,15.50
2023-03-05T07:27:10.224Z,11.90
2023-03-05T07:29:38.492Z,11.00
2023-03-05T07:32:07.106Z,11.40
2023-03-05T07:34:38.497Z,14.10
2023-03-05T07:37:06.695Z,10.23
2023-03-05T07:39:34.481Z,9.67
2023-03-05T07:42:02.303Z,10.70
2023-03-05T07:44:30.124Z,13.83
2023-03-05T07:46:57.981Z,12.50
2023-03-05T07:49:25.793Z,10.80
2023-03-05T07:51:54.975Z,13.77
2023-03-05T07:54:22.742Z,12.60
2023-03-05T07:56:50.548Z,9.97
2023-03-05T07:59:18.381Z,10.83
2023-03-05T08:01:46.395Z,12.10
2023-03-05T08:04:14.331Z,11.63
2023-03-05T08:06:42.529Z,9.53
2023-03-05T08:09:11.672Z,9.77
2023-03-05T08:11:40.593Z,10.47
2023-03-05T08:14:08.584Z,9.23
2023-03-05T08:16:36.900Z,10.53
2023-03-05T08:19:04.762Z,10.07
2023-03-05T08:21:34.571Z,15.17
2023-03-05T08:24:03.253Z,9.27
2023-03-05T08:26:35.923Z,9.00
2023-03-05T08:29:03.805Z,12.47
2023-03-05T08:31:32.983Z,13.67
2023-03-05T08:34:02.852Z,12.30
2023-03-05T08:36:31.142Z,13.03
2023-03-05T08:38:59.668Z,11.33
2023-03-05T08:41:27.876Z,11.63
2023-03-05T08:43:57.116Z,13.37
2023-03-05T08:46:25.466Z,11.80
2023-03-05T08:48:53.421Z,13.83
2023-03-05T08:51:23.504Z,12.17
2023-03-05T08:53:51.502Z,12.63
2023-03-05T08:56:19.309Z,11.27
2023-03-05T08:58:48.122Z,10.77
2023-03-05T09:01:17.324Z,18.07
2023-03-05T09:03:45.232Z,14.70
2023-03-05T09:06:13.415Z,11.43
2023-03-05T09:08:41.258Z,14.33
2023-03-05T09:11:10.797Z,10.90
2023-03-05T09:13:38.671Z,16.50
2023-03-05T09:16:07.998Z,35.27
2023-03-05T09:18:37.399Z,22.17
2023-03-05T09:21:06.417Z,26.10
2023-03-05T09:23:34.306Z,16.70
2023-03-05T09:26:02.420Z,35.90
2023-03-05T09:28:30.191Z,16.57
2023-03-05T09:30:57.967Z,14.73
2023-03-05T09:33:25.767Z,13.43
2023-03-05T09:35:54.957Z,12.97
2023-03-05T09:38:22.710Z,14.97
2023-03-05T09:40:54.842Z,13.97
2023-03-05T09:43:37.905Z,13.53
2023-03-05T09:46:16.091Z,14.20
2023-03-05T09:48:50.884Z,10.53
2023-03-05T09:51:24.296Z,12.80
2023-03-05T09:53:57.253Z,15.13
2023-03-05T09:56:28.014Z,14.23
2023-03-05T09:58:57.826Z,14.67
2023-03-05T10:01:30.621Z,11.30
2023-03-05T10:04:01.119Z,14.37
2023-03-05T10:06:32.069Z,11.40
2023-03-05T10:09:05.504Z,8.20
2023-03-05T10:11:42.336Z,11.67
2023-03-05T10:14:15.252Z,11.00
2023-03-05T10:17:00.282Z,12.13
2023-03-05T10:19:42.582Z,9.77
2023-03-05T10:22:17.311Z,10.27
2023-03-05T10:24:54.748Z,10.30
2023-03-05T10:27:30.715Z,11.00
2023-03-05T10:30:05.677Z,9.80
2023-03-05T10:32:42.561Z,11.23
2023-03-05T10:35:25.013Z,15.90
2023-03-05T10:38:12.679Z,8.10
2023-03-05T10:40:42.825Z,11.33
2023-03-05T10:43:20.775Z,8.60
2023-03-05T10:45:51.223Z,10.03
2023-03-05T10:48:28.428Z,10.00
2023-03-05T10:51:00.505Z,7.67
2023-03-05T10:53:30.680Z,9.00
2023-03-05T10:56:02.444Z,8.27
2023-03-05T10:58:30.253Z,7.37
2023-03-05T11:01:06.570Z,6.70
2023-03-05T11:03:53.148Z,8.37
2023-03-05T11:06:33.776Z,6.17
2023-03-05T11:09:29.169Z,9.63
2023-03-05T11:12:15.055Z,7.90
2023-03-05T11:14:44.531Z,6.17
2023-03-05T11:17:33.185Z,6.13
2023-03-05T11:20:29.462Z,6.00
2023-03-05T11:23:05.417Z,6.33
2023-03-05T11:25:35.531Z,6.30
2023-03-05T11:28:04.740Z,6.80
2023-03-05T11:30:34.370Z,7.53
2023-03-05T11:33:10.799Z,10.57
2023-03-05T11:35:40.991Z,10.43
2023-03-05T11:38:24.536Z,8.53
2023-03-05T11:40:56.445Z,6.20
2023-03-05T11:43:26.008Z,4.97
2023-03-05T11:45:56.181Z,10.27
2023-03-05T11:48:27.618Z,7.10
2023-03-05T11:50:57.671Z,4.73
2023-03-05T11:53:29.175Z,5.63
2023-03-05T11:56:01.137Z,3.60
2023-03-05T11:58:32.690Z,5.37
2023-03-05T12:01:01.500Z,6.83
2023-03-05T12:03:33.055Z,4.93
2023-03-05T12:06:04.643Z,5.40
2023-03-05T12:08:34.778Z,5.77
2023-03-05T12:11:07.526Z,4.43
2023-03-05T12:13:37.328Z,7.73
2023-03-05T12:16:16.971Z,2.83
2023-03-05T12:18:59.118Z,2.57
2023-03-05T12:21:34.091Z,2.47
2023-03-05T12:24:03.052Z,2.90
2023-03-05T12:26:59.261Z,5.67
2023-03-05T12:29:40.001Z,3.13
2023-03-05T12:33:01.050Z,4.50
2023-03-05T12:35:37.413Z,3.27
2023-03-05T12:38:32.372Z,4.63
2023-03-05T12:41:38.539Z,6.00
2023-03-05T12:44:23.759Z,5.63
2023-03-05T12:47:17.816Z,6.67
2023-03-05T12:49:47.072Z,5.30
2023-03-05T12:52:24.582Z,6.07
2023-03-05T12:55:17.927Z,7.27
2023-03-05T12:57:47.565Z,6.73
2023-03-05T13:00:21.766Z,4.87
2023-03-05T13:02:56.234Z,3.43
2023-03-05T13:05:26.826Z,5.77
2023-03-05T13:07:54.609Z,5.23
2023-03-05T13:10:25.016Z,5.27
2023-03-05T13:12:54.210Z,5.40
2023-03-05T13:15:24.711Z,3.63
2023-03-05T13:17:56.532Z,4.53
2023-03-05T13:20:37.744Z,5.63
2023-03-05T13:23:17.111Z,4.60
2023-03-05T13:25:45.842Z,4.27
2023-03-05T13:28:15.521Z,4.10
2023-03-05T13:30:52.139Z,4.60
2023-03-05T13:33:23.866Z,6.83
2023-03-05T13:35:53.649Z,4.70
2023-03-05T13:38:28.328Z,4.30
2023-03-05T13:41:08.432Z,4.30
2023-03-05T13:43:43.950Z,5.47
2023-03-05T13:46:13.205Z,4.00
2023-03-05T13:48:41.170Z,4.50
2023-03-05T13:51:09.738Z,5.20
2023-03-05T13:53:37.614Z,6.17
2023-03-05T13:56:07.488Z,26.57
2023-03-05T13:58:48.393Z,6.50
2023-03-05T14:01:25.252Z,5.40
2023-03-05T14:03:53.979Z,5.60
2023-03-05T14:06:23.134Z,5.70
2023-03-05T14:08:52.980Z,9.43
2023-03-05T14:11:21.294Z,7.43
2023-03-05T14:13:50.018Z,4.30
2023-03-05T14:16:28.016Z,5.07
2023-03-05T14:18:57.873Z,4.40
2023-03-05T14:21:25.997Z,5.73
2023-03-05T14:23:55.074Z,5.03
2023-03-05T14:26:31.263Z,5.77
2023-03-05T14:29:01.927Z,4.83
2023-03-05T14:31:32.675Z,7.23
2023-03-05T14:34:05.715Z,4.90
2023-03-05T14:36:34.003Z,4.67
2023-03-05T14:39:02.161Z,5.13
2023-03-05T14:41:36.800Z,4.20
2023-03-05T14:44:12.351Z,5.03
2023-03-05T14:46:41.754Z,3.90
2023-03-05T14:49:09.565Z,7.07
2023-03-05T14:51:39.754Z,6.80
2023-03-05T14:54:08.239Z,7.10
2023-03-05T14:56:36.187Z,5.87
2023-03-05T14:59:04.040Z,7.03
2023-03-05T15:01:31.887Z,5.23
2023-03-05T15:04:01.583Z,4.27
2023-03-05T15:06:33.114Z,5.03
2023-03-05T15:09:01.023Z,6.00
2023-03-05T15:11:28.840Z,7.10
2023-03-05T15:13:56.929Z,4.03
2023-03-05T15:16:25.018Z,6.63
2023-03-05T15:18:52.959Z,6.30
2023-03-05T15:21:22.162Z,7.13
2023-03-05T15:23:49.982Z,5.30
2023-03-05T15:26:17.882Z,8.20
2023-03-05T15:28:45.723Z,5.37
2023-03-05T15:31:13.535Z,6.10
2023-03-05T15:33:41.917Z,5.03
2023-03-05T15:36:10.671Z,7.33
2023-03-05T15:38:41.635Z,7.20
2023-03-05T15:41:09.424Z,6.93
2023-03-05T15:43:38.184Z,5.50
2023-03-05T15:46:07.000Z,6.90
2023-03-05T15:48:34.951Z,7.13
2023-03-05T15:51:02.968Z,16.67
2023-03-05T15:53:30.747Z,10.80
2023-03-05T15:55:59.882Z,5.67
2023-03-05T15:58:27.715Z,5.93
2023-03-05T16:00:55.631Z,9.17
2023-03-05T16:03:24.718Z,4.83
2023-03-05T16:05:52.760Z,6.80
2023-03-05T16:08:20.566Z,8.03
2023-03-05T16:10:50.282Z,7.90
2023-03-05T16:13:21.666Z,14.27
2023-03-05T16:15:53.251Z,8.03
2023-03-05T16:18:21.398Z,7.37
2023-03-05T16:20:49.584Z,7.27
2023-03-05T16:23:17.400Z,13.97
2023-03-05T16:25:45.338Z,20.20
2023-03-05T16:28:13.158Z,13.63
2023-03-05T16:30:42.487Z,9.00
2023-03-05T16:33:10.406Z,55.73
2023-03-05T16:35:38.356Z,12.67
2023-03-05T16:38:12.837Z,11.13
2023-03-05T16:41:05.893Z,19.17
2023-03-05T16:43:28.837Z,9.40
2023-03-05T16:45:58.064Z,14.03
2023-03-05T16:48:25.965Z,51.47
2023-03-05T16:50:53.765Z,61.50
2023-03-05T16:53:21.785Z,18.93
2023-03-05T16:55:49.560Z,15.57
2023-03-05T16:58:17.422Z,10.17
2023-03-05T17:00:45.367Z,23.87
2023-03-05T17:03:14.852Z,6.57
2023-03-05T17:05:42.794Z,9.53
2023-03-05T17:08:10.696Z,5.77
2023-03-05T17:10:38.488Z,9.30
2023-03-05T17:13:06.295Z,7.13
2023-03-05T17:15:34.418Z,9.03
2023-03-05T17:18:02.612Z,5.03
2023-03-05T17:20:33.586Z,5.63
2023-03-05T17:26:05.093Z,3.60
2023-03-05T17:28:34.099Z,4.63
2023-03-05T17:31:01.975Z,7.97
2023-03-05T17:33:31.359Z,9.03
2023-03-05T17:36:00.721Z,5.27
2023-03-05T17:38:28.961Z,6.73
2023-03-05T17:40:56.809Z,3.73
2023-03-05T17:43:24.720Z,3.40
2023-03-05T17:45:52.478Z,5.77
2023-03-05T17:48:20.321Z,4.57
2023-03-05T17:50:48.149Z,3.93
2023-03-05T17:53:17.453Z,5.73
2023-03-05T17:55:45.204Z,3.57
2023-03-05T17:58:13.017Z,5.60
2023-03-05T18:00:40.975Z,5.70
2023-03-05T18:03:08.850Z,5.10
2023-03-05T18:05:36.924Z,3.93
2023-03-05T18:08:05.140Z,4.73
2023-03-05T18:10:34.865Z,5.33
2023-03-05T18:13:02.721Z,6.23
2023-03-05T18:15:30.931Z,4.03
2023-03-05T18:17:59.616Z,5.20
2023-03-05T18:20:29.914Z,4.30
2023-03-05T18:22:58.860Z,3.83
2023-03-05T18:25:31.053Z,5.13
2023-03-05T18:28:00.781Z,3.57
2023-03-05T18:30:29.169Z,4.70
2023-03-05T18:32:57.116Z,5.50
2023-03-05T18:35:25.610Z,6.93
2023-03-05T18:37:53.442Z,7.57
2023-03-05T18:40:23.267Z,6.80
2023-03-05T18:42:51.427Z,9.67
2023-03-05T18:45:22.663Z,7.47
2023-03-05T18:47:54.102Z,4.30
2023-03-05T18:50:23.941Z,5.30
2023-03-05T18:52:51.858Z,5.10
2023-03-05T18:55:22.937Z,4.67
2023-03-05T18:57:50.882Z,82.30
2023-03-05T19:00:21.896Z,6.83
2023-03-05T19:02:49.933Z,7.00
2023-03-05T19:05:18.143Z,5.73
2023-03-05T19:07:46.160Z,6.77
2023-03-05T19:10:15.301Z,4.40
2023-03-05T19:12:49.862Z,7.43
2023-03-05T19:15:18.177Z,7.17
2023-03-05T19:17:47.884Z,8.50
2023-03-05T19:20:16.069Z,10.17
2023-03-05T19:22:44.202Z,5.30
2023-03-05T19:25:12.768Z,7.27
2023-03-05T19:27:40.618Z,5.30
2023-03-05T19:30:09.847Z,5.63
2023-03-05T19:32:37.844Z,6.47
2023-03-05T19:35:07.680Z,6.53
2023-03-05T19:37:35.450Z,9.30
2023-03-05T19:40:04.149Z,13.80
2023-03-05T19:42:31.980Z,14.27
2023-03-05T19:45:00.239Z,11.00
2023-03-05T19:47:28.139Z,12.30
2023-03-05T19:49:55.916Z,15.87
2023-03-05T19:52:25.080Z,14.27
2023-03-05T19:54:52.868Z,13.13
2023-03-05T19:57:20.639Z,14.63
2023-03-05T19:59:48.505Z,12.50
2023-03-05T20:02:19.391Z,5.70
2023-03-05T20:04:47.226Z,8.03
2023-03-05T20:07:15.101Z,4.27
2023-03-05T20:09:44.308Z,6.33
2023-03-05T20:12:12.192Z,9.73
2023-03-05T20:14:40.296Z,5.70
2023-03-05T20:17:08.282Z,4.43
2023-03-05T20:19:36.476Z,4.87
2023-03-05T20:22:04.785Z,6.77
2023-03-05T20:24:32.649Z,4.20
2023-03-05T20:27:01.914Z,5.03
2023-03-05T20:29:29.813Z,4.47
2023-03-05T20:31:57.710Z,6.03
2023-03-05T20:34:27.074Z,4.33
2023-03-05T20:36:54.925Z,4.80
2023-03-05T20:39:22.939Z,5.13
2023-03-05T20:41:51.234Z,5.67
2023-03-05T20:44:20.574Z,7.00
2023-03-05T20:46:59.600Z,4.50
2023-03-05T20:49:27.555Z,6.23
2023-03-05T20:51:55.328Z,5.23
2023-03-05T20:54:24.038Z,3.50
2023-03-05T20:56:51.882Z,5.20
2023-03-05T20:59:23.314Z,6.87
2023-03-05T21:01:51.170Z,5.47
2023-03-05T21:04:19.091Z,4.13
2023-03-05T21:06:46.993Z,3.97
2023-03-05T21:09:15.000Z,6.47
2023-03-05T21:11:42.946Z,3.93
2023-03-05T21:14:10.677Z,4.90
2023-03-05T21:16:39.998Z,5.07
2023-03-05T21:19:07.755Z,4.10
2023-03-05T21:21:35.664Z,5.93
2023-03-05T21:24:03.375Z,6.87
2023-03-05T21:26:31.138Z,5.80
2023-03-05T21:28:58.955Z,5.00
2023-03-05T21:31:28.668Z,3.67
2023-03-05T21:33:57.859Z,7.13
2023-03-05T21:36:26.085Z,5.17
2023-03-05T21:38:53.849Z,4.70
2023-03-05T21:41:23.008Z,4.27
2023-03-05T21:43:50.833Z,8.27
2023-03-05T21:46:18.554Z,5.27
2023-03-05T21:48:46.325Z,5.37
2023-03-05T21:51:16.832Z,6.03
2023-03-05T21:53:47.025Z,4.70
2023-03-05T21:56:23.826Z,6.27
2023-03-05T21:58:52.696Z,6.37
2023-03-05T22:01:21.888Z,5.87
2023-03-05T22:03:50.923Z,6.50
2023-03-05T22:06:21.037Z,5.73
2023-03-05T22:08:49.163Z,6.10
2023-03-05T22:11:19.207Z,4.20
2023-03-05T22:13:47.579Z,5.93
2023-03-05T22:16:23.253Z,5.87
2023-03-05T22:18:51.388Z,6.87
2023-03-05T22:21:22.753Z,6.37
2023-03-05T22:23:50.886Z,4.93
2023-03-05T22:26:18.752Z,5.50
2023-03-05T22:28:47.130Z,8.60
2023-03-05T22:31:21.848Z,6.10
2023-03-05T22:33:50.273Z,5.37
2023-03-05T22:36:18.374Z,9.03
2023-03-05T22:38:47.808Z,7.27
2023-03-05T22:41:17.296Z,8.97
2023-03-05T22:43:45.360Z,11.47
2023-03-05T22:46:14.743Z,9.90
2023-03-05T22:48:42.591Z,10.87
2023-03-05T22:51:11.373Z,8.57
2023-03-05T22:53:39.924Z,5.90
2023-03-05T22:56:11.147Z,8.83
2023-03-05T22:58:39.467Z,6.03
2023-03-05T23:01:12.485Z,5.47
2023-03-05T23:03:40.890Z,9.47
2023-03-05T23:06:10.337Z,6.20
2023-03-05T23:08:38.791Z,7.67
2023-03-05T23:11:13.447Z,9.30
2023-03-05T23:13:41.889Z,7.03
2023-03-05T23:16:10.016Z,6.10
2023-03-05T23:18:38.336Z,7.23
2023-03-05T23:21:06.622Z,5.47
2023-03-05T23:23:34.601Z,6.07
2023-03-05T23:26:02.690Z,5.87
2023-03-05T23:28:32.344Z,6.57
2023-03-05T23:31:00.148Z,6.27
2023-03-05T23:33:27.898Z,5.67
2023-03-05T23:35:57.302Z,8.47
2023-03-05T23:38:26.062Z,6.30
2023-03-05T23:40:55.477Z,4.90
2023-03-05T23:43:25.720Z,5.30
2023-03-05T23:45:56.066Z,6.87
2023-03-05T23:48:24.754Z,7.27
2023-03-05T23:50:53.138Z,6.00
2023-03-05T23:53:22.536Z,5.43
2023-03-05T23:55:51.401Z,5.00
2023-03-05T23:58:20.336Z,5.97
